< < Back
Terminal Aerodrome Forecast


Current Version              Previous Versions:   1  2  3  4  5  6  7  8  9  

Terminal Aerodrome Forecast

025
FTUS42 KTAE 221700
TAFVLD
TAF
KVLD 221720Z 2218/2318 09010G15KT P6SM -RA BKN040 OVC060
     FM230000 09010KT 3SM RA BR OVC007
     FM230700 10012KT 2SM TSRA BR OVC006CB
     FM231500 15010KT 3SM BR OVC006=



Latest METAR

354
SAUS70 KWBC 230558
MTRVLD
METAR KVLD 230553Z AUTO 10008KT 8SM -RA SCT010 BKN013 OVC019 17/16 A3007
RMK AO2 SLP190 P0023 60085 T01720161 10172 20156 56022 $


USA.gov is the U.S. government's official web portal to all federal, state and local government web resources and services.